sensor_id;sensor_type;location;lat;lon;timestamp;P1;durP1;ratioP1;P2;durP2;ratioP2
53644;SDS011;39547;45.554;12.068;2022-11-21T00:02:39;23.45;;;12.65;;
53644;SDS011;39547;45.554;12.068;2022-11-21T00:08:40;21.00;;;11.10;;
53644;SDS011;39547;45.554;12.068;2022-11-21T00:14:42;22.85;;;11.48;;
53644;SDS011;39547;45.554;12.068;2022-11-21T00:20:44;21.50;;;11.27;;
53644;SDS011;39547;45.554;12.068;2022-11-21T00:26:45;20.42;;;10.68;;
53644;SDS011;39547;45.554;12.068;2022-11-21T00:32:47;22.67;;;11.15;;
53644;SDS011;39547;45.554;12.068;2022-11-21T00:38:48;18.50;;;9.60;;
53644;SDS011;39547;45.554;12.068;2022-11-21T00:44:50;20.88;;;10.50;;
53644;SDS011;39547;45.554;12.068;2022-11-21T00:50:51;20.48;;;10.77;;
53644;SDS011;39547;45.554;12.068;2022-11-21T00:56:53;20.40;;;10.35;;
53644;SDS011;39547;45.554;12.068;2022-11-21T01:02:54;20.27;;;10.27;;
53644;SDS011;39547;45.554;12.068;2022-11-21T01:08:56;19.65;;;9.68;;
53644;SDS011;39547;45.554;12.068;2022-11-21T01:14:57;20.77;;;10.45;;
53644;SDS011;39547;45.554;12.068;2022-11-21T01:21:03;20.77;;;9.90;;
53644;SDS011;39547;45.554;12.068;2022-11-21T01:27:12;18.58;;;9.38;;
53644;SDS011;39547;45.554;12.068;2022-11-21T01:33:13;19.92;;;9.52;;
53644;SDS011;39547;45.554;12.068;2022-11-21T01:39:15;18.83;;;8.85;;
53644;SDS011;39547;45.554;12.068;2022-11-21T01:52:15;18.52;;;8.50;;
53644;SDS011;39547;45.554;12.068;2022-11-21T01:58:28;19.02;;;8.82;;
53644;SDS011;39547;45.554;12.068;2022-11-21T02:04:34;19.92;;;9.55;;
53644;SDS011;39547;45.554;12.068;2022-11-21T02:10:37;19.67;;;9.50;;
53644;SDS011;39547;45.554;12.068;2022-11-21T02:16:44;18.60;;;9.13;;
53644;SDS011;39547;45.554;12.068;2022-11-21T02:29:18;17.88;;;8.30;;
53644;SDS011;39547;45.554;12.068;2022-11-21T02:35:19;17.40;;;8.23;;
53644;SDS011;39547;45.554;12.068;2022-11-21T02:41:21;17.98;;;8.40;;
53644;SDS011;39547;45.554;12.068;2022-11-21T02:47:26;18.90;;;9.02;;
53644;SDS011;39547;45.554;12.068;2022-11-21T02:53:28;19.60;;;9.25;;
53644;SDS011;39547;45.554;12.068;2022-11-21T02:59:30;20.25;;;9.32;;
53644;SDS011;39547;45.554;12.068;2022-11-21T03:05:31;18.67;;;8.80;;
53644;SDS011;39547;45.554;12.068;2022-11-21T03:11:33;18.05;;;8.73;;
53644;SDS011;39547;45.554;12.068;2022-11-21T03:17:34;19.55;;;10.15;;
53644;SDS011;39547;45.554;12.068;2022-11-21T03:23:36;18.20;;;8.43;;
53644;SDS011;39547;45.554;12.068;2022-11-21T03:29:38;20.15;;;9.32;;
53644;SDS011;39547;45.554;12.068;2022-11-21T03:35:39;20.08;;;9.52;;
53644;SDS011;39547;45.554;12.068;2022-11-21T03:41:40;18.05;;;8.32;;
53644;SDS011;39547;45.554;12.068;2022-11-21T03:47:42;18.25;;;8.75;;
53644;SDS011;39547;45.554;12.068;2022-11-21T03:53:44;20.20;;;9.95;;
53644;SDS011;39547;45.554;12.068;2022-11-21T03:59:46;19.35;;;9.15;;
53644;SDS011;39547;45.554;12.068;2022-11-21T04:05:47;20.23;;;9.95;;
53644;SDS011;39547;45.554;12.068;2022-11-21T04:11:49;18.73;;;9.18;;
53644;SDS011;39547;45.554;12.068;2022-11-21T04:17:50;19.55;;;9.25;;
53644;SDS011;39547;45.554;12.068;2022-11-21T04:23:52;17.92;;;9.18;;
53644;SDS011;39547;45.554;12.068;2022-11-21T04:29:54;22.15;;;10.73;;
53644;SDS011;39547;45.554;12.068;2022-11-21T04:35:55;19.75;;;9.77;;
53644;SDS011;39547;45.554;12.068;2022-11-21T04:41:57;20.45;;;9.88;;
53644;SDS011;39547;45.554;12.068;2022-11-21T04:47:58;20.77;;;10.45;;
53644;SDS011;39547;45.554;12.068;2022-11-21T04:53:59;21.10;;;10.27;;
53644;SDS011;39547;45.554;12.068;2022-11-21T05:00:01;19.88;;;9.52;;
53644;SDS011;39547;45.554;12.068;2022-11-21T05:06:03;19.83;;;10.00;;
53644;SDS011;39547;45.554;12.068;2022-11-21T05:12:04;20.27;;;10.32;;
53644;SDS011;39547;45.554;12.068;2022-11-21T05:18:24;19.38;;;9.80;;
53644;SDS011;39547;45.554;12.068;2022-11-21T05:24:26;19.25;;;9.38;;
53644;SDS011;39547;45.554;12.068;2022-11-21T05:30:27;20.48;;;10.07;;
53644;SDS011;39547;45.554;12.068;2022-11-21T05:36:51;21.75;;;11.00;;
53644;SDS011;39547;45.554;12.068;2022-11-21T05:42:56;22.20;;;10.95;;
53644;SDS011;39547;45.554;12.068;2022-11-21T05:49:17;23.27;;;11.68;;
53644;SDS011;39547;45.554;12.068;2022-11-21T05:55:19;22.00;;;11.00;;
53644;SDS011;39547;45.554;12.068;2022-11-21T06:01:20;21.23;;;10.68;;
53644;SDS011;39547;45.554;12.068;2022-11-21T06:07:41;21.48;;;11.18;;
53644;SDS011;39547;45.554;12.068;2022-11-21T06:13:42;20.75;;;10.57;;
53644;SDS011;39547;45.554;12.068;2022-11-21T06:19:44;21.88;;;11.20;;
53644;SDS011;39547;45.554;12.068;2022-11-21T06:25:45;23.23;;;12.98;;
53644;SDS011;39547;45.554;12.068;2022-11-21T06:31:47;23.67;;;12.18;;
53644;SDS011;39547;45.554;12.068;2022-11-21T06:37:48;21.77;;;11.25;;
53644;SDS011;39547;45.554;12.068;2022-11-21T06:43:50;22.02;;;11.02;;
53644;SDS011;39547;45.554;12.068;2022-11-21T06:49:51;22.38;;;11.18;;
53644;SDS011;39547;45.554;12.068;2022-11-21T06:55:56;26.75;;;13.10;;
53644;SDS011;39547;45.554;12.068;2022-11-21T07:01:59;22.15;;;11.80;;
53644;SDS011;39547;45.554;12.068;2022-11-21T07:08:01;24.00;;;12.70;;
53644;SDS011;39547;45.554;12.068;2022-11-21T07:14:03;25.23;;;13.18;;
53644;SDS011;39547;45.554;12.068;2022-11-21T07:20:04;23.00;;;12.40;;
53644;SDS011;39547;45.554;12.068;2022-11-21T07:26:06;25.30;;;13.48;;
53644;SDS011;39547;45.554;12.068;2022-11-21T07:32:10;22.90;;;11.18;;
53644;SDS011;39547;45.554;12.068;2022-11-21T07:38:11;24.17;;;13.40;;
53644;SDS011;39547;45.554;12.068;2022-11-21T07:44:13;30.02;;;15.40;;
53644;SDS011;39547;45.554;12.068;2022-11-21T07:50:14;33.47;;;19.35;;
53644;SDS011;39547;45.554;12.068;2022-11-21T07:56:16;27.38;;;15.18;;
53644;SDS011;39547;45.554;12.068;2022-11-21T08:02:23;28.02;;;15.52;;
53644;SDS011;39547;45.554;12.068;2022-11-21T08:08:26;27.20;;;14.65;;
53644;SDS011;39547;45.554;12.068;2022-11-21T08:14:28;25.08;;;13.32;;
53644;SDS011;39547;45.554;12.068;2022-11-21T08:20:29;24.20;;;13.38;;
53644;SDS011;39547;45.554;12.068;2022-11-21T08:26:30;26.45;;;13.85;;
53644;SDS011;39547;45.554;12.068;2022-11-21T08:32:32;23.02;;;12.00;;
53644;SDS011;39547;45.554;12.068;2022-11-21T08:38:34;22.58;;;11.48;;
53644;SDS011;39547;45.554;12.068;2022-11-21T08:44:35;21.95;;;11.25;;
53644;SDS011;39547;45.554;12.068;2022-11-21T08:50:37;23.45;;;10.98;;
53644;SDS011;39547;45.554;12.068;2022-11-21T08:56:39;19.60;;;9.98;;
53644;SDS011;39547;45.554;12.068;2022-11-21T09:02:40;19.70;;;9.57;;
53644;SDS011;39547;45.554;12.068;2022-11-21T09:08:42;20.13;;;9.52;;
53644;SDS011;39547;45.554;12.068;2022-11-21T09:14:43;19.20;;;9.18;;
53644;SDS011;39547;45.554;12.068;2022-11-21T09:21:03;19.15;;;8.70;;
53644;SDS011;39547;45.554;12.068;2022-11-21T09:27:04;18.98;;;9.25;;
53644;SDS011;39547;45.554;12.068;2022-11-21T09:33:07;20.65;;;10.43;;
53644;SDS011;39547;45.554;12.068;2022-11-21T09:39:13;19.60;;;9.98;;
53644;SDS011;39547;45.554;12.068;2022-11-21T09:45:15;19.13;;;9.07;;
53644;SDS011;39547;45.554;12.068;2022-11-21T09:51:22;20.38;;;10.10;;
53644;SDS011;39547;45.554;12.068;2022-11-21T09:57:25;19.27;;;9.52;;
53644;SDS011;39547;45.554;12.068;2022-11-21T10:03:43;18.67;;;9.15;;
53644;SDS011;39547;45.554;12.068;2022-11-21T10:16:25;17.77;;;8.27;;
53644;SDS011;39547;45.554;12.068;2022-11-21T10:22:51;17.15;;;8.68;;
53644;SDS011;39547;45.554;12.068;2022-11-21T10:29:02;17.27;;;7.88;;
53644;SDS011;39547;45.554;12.068;2022-11-21T10:36:06;15.60;;;6.90;;
53644;SDS011;39547;45.554;12.068;2022-11-21T10:47:53;13.95;;;5.75;;
53644;SDS011;39547;45.554;12.068;2022-11-21T10:54:04;15.38;;;6.70;;
53644;SDS011;39547;45.554;12.068;2022-11-21T11:00:28;14.20;;;5.88;;
53644;SDS011;39547;45.554;12.068;2022-11-21T11:06:47;16.75;;;7.85;;
53644;SDS011;39547;45.554;12.068;2022-11-21T11:12:49;16.52;;;7.60;;
53644;SDS011;39547;45.554;12.068;2022-11-21T11:25:14;17.58;;;8.27;;
53644;SDS011;39547;45.554;12.068;2022-11-21T11:31:16;16.55;;;7.32;;
53644;SDS011;39547;45.554;12.068;2022-11-21T11:37:34;16.83;;;7.30;;
53644;SDS011;39547;45.554;12.068;2022-11-21T11:50:31;19.83;;;9.50;;
53644;SDS011;39547;45.554;12.068;2022-11-21T11:56:38;21.08;;;9.63;;
53644;SDS011;39547;45.554;12.068;2022-11-21T12:02:59;20.85;;;9.88;;
53644;SDS011;39547;45.554;12.068;2022-11-21T12:09:27;22.10;;;10.48;;
53644;SDS011;39547;45.554;12.068;2022-11-21T12:15:47;23.00;;;10.98;;
53644;SDS011;39547;45.554;12.068;2022-11-21T12:21:54;22.45;;;10.45;;
53644;SDS011;39547;45.554;12.068;2022-11-21T12:27:56;21.92;;;10.02;;
53644;SDS011;39547;45.554;12.068;2022-11-21T12:34:03;22.92;;;10.13;;
53644;SDS011;39547;45.554;12.068;2022-11-21T12:52:39;29.20;;;13.50;;
53644;SDS011;39547;45.554;12.068;2022-11-21T12:59:03;31.42;;;15.95;;
53644;SDS011;39547;45.554;12.068;2022-11-21T13:05:05;29.17;;;13.35;;
53644;SDS011;39547;45.554;12.068;2022-11-21T13:23:45;28.48;;;13.75;;
53644;SDS011;39547;45.554;12.068;2022-11-21T13:42:28;24.83;;;11.40;;
53644;SDS011;39547;45.554;12.068;2022-11-21T13:49:03;25.00;;;12.20;;
53644;SDS011;39547;45.554;12.068;2022-11-21T14:01:44;21.60;;;10.13;;
53644;SDS011;39547;45.554;12.068;2022-11-21T14:08:26;22.25;;;10.75;;
53644;SDS011;39547;45.554;12.068;2022-11-21T14:14:30;26.00;;;11.82;;
53644;SDS011;39547;45.554;12.068;2022-11-21T14:20:53;30.05;;;15.38;;
53644;SDS011;39547;45.554;12.068;2022-11-21T14:26:57;25.10;;;12.52;;
53644;SDS011;39547;45.554;12.068;2022-11-21T14:39:38;25.05;;;12.43;;
53644;SDS011;39547;45.554;12.068;2022-11-21T14:45:47;27.00;;;12.85;;
53644;SDS011;39547;45.554;12.068;2022-11-21T14:58:17;27.02;;;12.57;;
53644;SDS011;39547;45.554;12.068;2022-11-21T15:04:24;25.67;;;12.27;;
53644;SDS011;39547;45.554;12.068;2022-11-21T15:10:29;27.35;;;12.70;;
53644;SDS011;39547;45.554;12.068;2022-11-21T15:16:33;27.63;;;12.93;;
53644;SDS011;39547;45.554;12.068;2022-11-21T15:22:35;25.73;;;12.18;;
53644;SDS011;39547;45.554;12.068;2022-11-21T15:28:52;24.53;;;10.67;;
53644;SDS011;39547;45.554;12.068;2022-11-21T15:34:57;24.73;;;12.02;;
53644;SDS011;39547;45.554;12.068;2022-11-21T15:47:10;23.00;;;10.60;;
53644;SDS011;39547;45.554;12.068;2022-11-21T15:53:17;24.25;;;10.65;;
53644;SDS011;39547;45.554;12.068;2022-11-21T15:59:19;27.77;;;12.93;;
53644;SDS011;39547;45.554;12.068;2022-11-21T16:05:21;21.77;;;10.32;;
53644;SDS011;39547;45.554;12.068;2022-11-21T16:11:26;22.27;;;10.48;;
53644;SDS011;39547;45.554;12.068;2022-11-21T16:17:37;28.02;;;13.10;;
53644;SDS011;39547;45.554;12.068;2022-11-21T16:23:40;28.42;;;13.65;;
53644;SDS011;39547;45.554;12.068;2022-11-21T16:29:42;29.23;;;14.40;;
53644;SDS011;39547;45.554;12.068;2022-11-21T16:35:43;26.73;;;13.10;;
53644;SDS011;39547;45.554;12.068;2022-11-21T16:41:45;29.20;;;13.25;;
53644;SDS011;39547;45.554;12.068;2022-11-21T16:47:48;32.00;;;15.52;;
53644;SDS011;39547;45.554;12.068;2022-11-21T16:53:50;32.97;;;16.85;;
53644;SDS011;39547;45.554;12.068;2022-11-21T16:59:52;30.60;;;15.35;;
53644;SDS011;39547;45.554;12.068;2022-11-21T17:05:56;31.70;;;16.75;;
53644;SDS011;39547;45.554;12.068;2022-11-21T17:11:58;34.13;;;18.42;;
53644;SDS011;39547;45.554;12.068;2022-11-21T17:18:00;32.03;;;17.20;;
53644;SDS011;39547;45.554;12.068;2022-11-21T17:24:01;32.83;;;17.67;;
53644;SDS011;39547;45.554;12.068;2022-11-21T17:30:03;35.63;;;18.02;;
53644;SDS011;39547;45.554;12.068;2022-11-21T17:36:06;44.20;;;22.98;;
53644;SDS011;39547;45.554;12.068;2022-11-21T17:42:11;39.47;;;20.55;;
53644;SDS011;39547;45.554;12.068;2022-11-21T17:48:12;38.22;;;21.30;;
53644;SDS011;39547;45.554;12.068;2022-11-21T17:54:14;40.03;;;21.88;;
53644;SDS011;39547;45.554;12.068;2022-11-21T18:00:15;42.58;;;22.63;;
53644;SDS011;39547;45.554;12.068;2022-11-21T18:06:38;39.05;;;21.52;;
53644;SDS011;39547;45.554;12.068;2022-11-21T18:12:39;40.08;;;22.48;;
53644;SDS011;39547;45.554;12.068;2022-11-21T18:18:41;40.13;;;21.45;;
53644;SDS011;39547;45.554;12.068;2022-11-21T18:24:42;43.60;;;23.35;;
53644;SDS011;39547;45.554;12.068;2022-11-21T18:30:44;39.17;;;21.90;;
53644;SDS011;39547;45.554;12.068;2022-11-21T18:37:04;42.58;;;21.92;;
53644;SDS011;39547;45.554;12.068;2022-11-21T18:43:06;42.35;;;23.60;;
53644;SDS011;39547;45.554;12.068;2022-11-21T18:49:07;43.53;;;23.70;;
53644;SDS011;39547;45.554;12.068;2022-11-21T18:55:09;42.75;;;23.20;;
53644;SDS011;39547;45.554;12.068;2022-11-21T19:01:20;40.03;;;22.67;;
53644;SDS011;39547;45.554;12.068;2022-11-21T19:07:22;40.75;;;22.38;;
53644;SDS011;39547;45.554;12.068;2022-11-21T19:13:24;42.42;;;23.95;;
53644;SDS011;39547;45.554;12.068;2022-11-21T19:19:27;39.55;;;22.00;;
53644;SDS011;39547;45.554;12.068;2022-11-21T19:25:29;38.55;;;21.45;;
53644;SDS011;39547;45.554;12.068;2022-11-21T19:31:31;40.75;;;22.67;;
53644;SDS011;39547;45.554;12.068;2022-11-21T19:37:33;39.17;;;21.15;;
53644;SDS011;39547;45.554;12.068;2022-11-21T19:43:35;38.65;;;20.85;;
53644;SDS011;39547;45.554;12.068;2022-11-21T19:49:36;42.33;;;21.77;;
53644;SDS011;39547;45.554;12.068;2022-11-21T19:55:37;48.03;;;27.85;;
53644;SDS011;39547;45.554;12.068;2022-11-21T20:01:39;38.00;;;20.73;;
53644;SDS011;39547;45.554;12.068;2022-11-21T20:07:40;37.65;;;20.50;;
53644;SDS011;39547;45.554;12.068;2022-11-21T20:13:44;37.53;;;20.52;;
53644;SDS011;39547;45.554;12.068;2022-11-21T20:19:46;37.43;;;19.87;;
53644;SDS011;39547;45.554;12.068;2022-11-21T20:25:48;35.70;;;18.67;;
53644;SDS011;39547;45.554;12.068;2022-11-21T20:31:50;34.90;;;19.13;;
53644;SDS011;39547;45.554;12.068;2022-11-21T20:37:52;34.42;;;19.48;;
53644;SDS011;39547;45.554;12.068;2022-11-21T20:43:54;36.38;;;20.13;;
53644;SDS011;39547;45.554;12.068;2022-11-21T20:49:56;33.50;;;18.08;;
53644;SDS011;39547;45.554;12.068;2022-11-21T20:56:01;34.30;;;18.70;;
53644;SDS011;39547;45.554;12.068;2022-11-21T21:02:07;32.75;;;17.73;;
53644;SDS011;39547;45.554;12.068;2022-11-21T21:08:11;37.03;;;20.15;;
53644;SDS011;39547;45.554;12.068;2022-11-21T21:14:12;33.72;;;17.45;;
53644;SDS011;39547;45.554;12.068;2022-11-21T21:20:14;34.47;;;17.75;;
53644;SDS011;39547;45.554;12.068;2022-11-21T21:26:17;30.85;;;16.33;;
53644;SDS011;39547;45.554;12.068;2022-11-21T21:32:20;31.90;;;16.55;;
53644;SDS011;39547;45.554;12.068;2022-11-21T21:38:22;31.98;;;16.58;;
53644;SDS011;39547;45.554;12.068;2022-11-21T21:44:23;31.52;;;17.02;;
53644;SDS011;39547;45.554;12.068;2022-11-21T21:50:24;29.92;;;16.10;;
53644;SDS011;39547;45.554;12.068;2022-11-21T21:56:26;29.45;;;15.68;;
53644;SDS011;39547;45.554;12.068;2022-11-21T22:02:28;25.88;;;12.85;;
53644;SDS011;39547;45.554;12.068;2022-11-21T22:08:31;31.13;;;15.52;;
53644;SDS011;39547;45.554;12.068;2022-11-21T22:14:33;30.67;;;16.08;;
53644;SDS011;39547;45.554;12.068;2022-11-21T22:20:35;28.63;;;14.63;;
53644;SDS011;39547;45.554;12.068;2022-11-21T22:26:36;27.77;;;14.65;;
53644;SDS011;39547;45.554;12.068;2022-11-21T22:32:38;31.52;;;16.10;;
53644;SDS011;39547;45.554;12.068;2022-11-21T22:38:40;27.13;;;14.35;;
53644;SDS011;39547;45.554;12.068;2022-11-21T22:44:41;27.55;;;13.40;;
53644;SDS011;39547;45.554;12.068;2022-11-21T22:50:44;29.20;;;14.30;;
53644;SDS011;39547;45.554;12.068;2022-11-21T22:56:46;26.42;;;13.15;;
53644;SDS011;39547;45.554;12.068;2022-11-21T23:02:47;25.40;;;13.15;;
53644;SDS011;39547;45.554;12.068;2022-11-21T23:08:49;26.27;;;12.63;;
53644;SDS011;39547;45.554;12.068;2022-11-21T23:14:51;23.13;;;11.43;;
53644;SDS011;39547;45.554;12.068;2022-11-21T23:20:53;24.15;;;11.50;;
53644;SDS011;39547;45.554;12.068;2022-11-21T23:26:54;22.83;;;11.65;;
53644;SDS011;39547;45.554;12.068;2022-11-21T23:32:56;25.50;;;12.77;;
53644;SDS011;39547;45.554;12.068;2022-11-21T23:38:57;23.60;;;11.70;;
53644;SDS011;39547;45.554;12.068;2022-11-21T23:44:59;27.75;;;13.52;;
53644;SDS011;39547;45.554;12.068;2022-11-21T23:51:00;26.60;;;12.40;;
53644;SDS011;39547;45.554;12.068;2022-11-21T23:57:01;24.48;;;12.15;;
